»·PEaware :: N768FS KSMO-KPSP

N768FS :: KSMO-KPSP

FLIGHT INFORMATION

Flight Status: Arrived
Operator: Privately registered:
United States
More flights under this callsign
Pilot: Steve R. (31194)
Aircraft: CIRRUS SR-22 TURBO
(S22T)
More flights by this aircraft type
Origin: KSMO Santa Monica Mun
United States
Destination: KPSP Palm Springs Intl
United States
More flights between these airports :: More routes between these airports
Route: VPLGP ELMOO POM RAVON KBNG GARNE
File this flight plan on PilotEdge
Remarks:
Altitude:
(Current/Filed)
7,500ft
Speed:
(Current/Filed)
175kts
Departed: 07-Jan-21 10:23 AM
Arrived: 07-Jan-21 11:08 AM
Distance/Time
Traveled:
98nm/0:45
Distance/Time
To Go:
Arrived

Flight Plot

Page will automatically refresh every two minutes.

Flight plan parsing failed; only flown route is shown


Map Options




Map Legend


Flown Route
Filed Route
Departure Airport
Arrival Airport
Navaid (VOR, NDB)
Fix

Horizontal Profiles

Position Reports

Time Latitude Longitude Heading Altitude Ground
Speed
07-Jan-21 09:53 34.013755 -118.455324 133 128ft 0kts
07-Jan-21 09:55 34.013755 -118.455324 133 128ft 0kts
07-Jan-21 09:55 34.013755 -118.455324 133 128ft 0kts
07-Jan-21 09:56 34.013755 -118.455324 133 128ft 0kts
07-Jan-21 09:57 34.013755 -118.455324 133 128ft 0kts
07-Jan-21 09:58 34.013755 -118.455324 133 128ft 0kts
07-Jan-21 09:59 34.013755 -118.455324 133 128ft 0kts
07-Jan-21 10:00 34.013755 -118.455324 133 128ft 0kts
07-Jan-21 10:01 34.013755 -118.455324 133 128ft 0kts
07-Jan-21 10:02 34.013755 -118.455324 133 128ft 0kts
07-Jan-21 10:03 34.013755 -118.455324 133 128ft 0kts
07-Jan-21 10:04 34.013755 -118.455324 133 128ft 0kts
07-Jan-21 10:05 34.013755 -118.455324 133 128ft 0kts
07-Jan-21 10:06 34.013755 -118.455324 133 128ft 0kts
07-Jan-21 10:07 34.013755 -118.455324 133 128ft 0kts
07-Jan-21 10:08 34.013755 -118.455324 133 128ft 0kts
07-Jan-21 10:09 34.013755 -118.455324 133 128ft 0kts
07-Jan-21 10:10 34.013755 -118.455324 133 128ft 0kts
07-Jan-21 10:11 34.013755 -118.455324 133 128ft 0kts
07-Jan-21 10:12 34.013755 -118.455324 133 128ft 0kts
07-Jan-21 10:13 34.013988 -118.454625 52 130ft 9kts
07-Jan-21 10:14 34.017850 -118.450032 44 149ft 24kts
07-Jan-21 10:15 34.019291 -118.448105 288 158ft 0kts
07-Jan-21 10:16 34.019291 -118.448105 288 158ft 0kts
07-Jan-21 10:17 34.019291 -118.448105 288 158ft 0kts
07-Jan-21 10:18 34.019291 -118.448105 288 158ft 0kts
07-Jan-21 10:19 34.019291 -118.448105 288 158ft 0kts
07-Jan-21 10:20 34.019547 -118.447694 123 159ft 0kts
07-Jan-21 10:21 34.019448 -118.447540 129 159ft 6kts
07-Jan-21 10:22 34.003576 -118.466004 238 903ft 124kts
07-Jan-21 10:23 34.000115 -118.503160 303 2744ft 119kts
07-Jan-21 10:24 34.020578 -118.503565 70 4124ft 122kts
07-Jan-21 10:25 34.020578 -118.503565 70 4124ft 122kts
07-Jan-21 10:26 34.034157 -118.459777 60 4518ft 164kts
07-Jan-21 10:27 34.045610 -118.435786 56 4504ft 172kts
07-Jan-21 10:28 34.068767 -118.391756 55 4495ft 174kts
07-Jan-21 10:29 34.095405 -118.342525 54 4492ft 175kts
07-Jan-21 10:30 34.117374 -118.291374 94 4480ft 178kts
07-Jan-21 10:31 34.112245 -118.232599 94 4494ft 175kts
07-Jan-21 10:32 34.107782 -118.183380 92 5842ft 132kts
07-Jan-21 10:33 34.103790 -118.139036 92 6963ft 134kts
07-Jan-21 10:34 34.099440 -118.090942 93 7538ft 165kts
07-Jan-21 10:35 34.095239 -118.032482 92 7520ft 180kts
07-Jan-21 10:36 34.091110 -117.971840 92 7509ft 181kts
07-Jan-21 10:37 34.086955 -117.911042 92 7509ft 181kts
07-Jan-21 10:38 34.082770 -117.850208 92 7509ft 182kts
07-Jan-21 10:39 34.078562 -117.789358 91 7508ft 182kts
07-Jan-21 10:40 34.079848 -117.728270 85 7505ft 182kts
07-Jan-21 10:41 34.081331 -117.667080 85 7503ft 182kts
07-Jan-21 10:42 34.082793 -117.605443 85 7501ft 183kts
07-Jan-21 10:43 34.084217 -117.543914 85 7504ft 183kts
07-Jan-21 10:44 34.085614 -117.482423 85 7509ft 183kts
07-Jan-21 10:45 34.086977 -117.421094 85 7514ft 182kts
07-Jan-21 10:46 34.088297 -117.360237 85 7518ft 181kts
07-Jan-21 10:47 34.080628 -117.300960 111 7521ft 183kts
07-Jan-21 10:48 34.060841 -117.244476 111 7518ft 183kts
07-Jan-21 10:49 34.040996 -117.187705 110 7518ft 183kts
07-Jan-21 10:50 34.021182 -117.131126 111 7518ft 183kts
07-Jan-21 10:51 34.001367 -117.074633 111 7518ft 183kts
07-Jan-21 10:52 33.981400 -117.017819 111 7472ft 183kts
07-Jan-21 10:53 33.961438 -116.961116 111 7473ft 183kts
07-Jan-21 10:54 33.940844 -116.902753 112 6859ft 187kts
07-Jan-21 10:55 33.922229 -116.848885 101 6072ft 166kts
07-Jan-21 10:56 33.915787 -116.795257 79 5367ft 159kts
07-Jan-21 10:57 33.922450 -116.742753 80 4702ft 158kts
07-Jan-21 10:58 33.922210 -116.690402 112 4051ft 159kts
07-Jan-21 10:59 33.904556 -116.643389 113 3351ft 129kts
07-Jan-21 11:00 33.887440 -116.598056 113 2726ft 139kts
07-Jan-21 11:01 33.869595 -116.559790 122 2063ft 154kts
07-Jan-21 11:02 33.853606 -116.516504 113 1433ft 101kts
07-Jan-21 11:03 33.841414 -116.488215 136 1281ft 96kts
07-Jan-21 11:04 33.818771 -116.470482 155 1016ft 98kts
07-Jan-21 11:05 33.807296 -116.487067 322 846ft 91kts
07-Jan-21 11:06 33.827527 -116.502915 321 414ft 68kts
07-Jan-21 11:07 33.831733 -116.506052 40 425ft 10kts
07-Jan-21 11:08 33.828950 -116.503167 143 416ft 12kts
07-Jan-21 11:09 33.826479 -116.500985 143 407ft 10kts
07-Jan-21 11:10 33.824665 -116.499035 154 401ft 5kts
07-Jan-21 11:11 33.824278 -116.498633 39 399ft 0kts
07-Jan-21 11:12 33.824278 -116.498633 39 399ft 0kts
07-Jan-21 11:13 33.824278 -116.498633 39 399ft 0kts
07-Jan-21 11:14 33.824278 -116.498633 39 399ft 0kts
07-Jan-21 11:15 33.824278 -116.498633 39 399ft 0kts
07-Jan-21 11:17 33.824278 -116.498633 39 399ft 0kts
07-Jan-21 11:18 33.824278 -116.498633 39 399ft 0kts
07-Jan-21 11:19 33.824278 -116.498633 39 399ft 0kts
07-Jan-21 11:20 33.824278 -116.498633 39 399ft 0kts
07-Jan-21 11:21 33.824278 -116.498633 39 399ft 0kts
07-Jan-21 11:22 33.824278 -116.498633 39 399ft 0kts

Navigation Log

Ident Type
Flight plan parsing failed, navigation log unavailable